Accueil
METAR-TAF:

METAR-TAF

Aéroports :

Aéroport d'Alicante-Elche

Alicante, Espagne

latitude: 38-17N, longitude: 000-33W, altitude: 43 m

Observation

Le bulletin a été fait il y a 26 minutes, à 06:00 UTC
Vent 1 kt de direction variable
Température 12°C
Humidité 82%
Pression 1021 hPa
Visibilité 10 km ou plus
pas de nuages en-dessous de 1500 mètres et pas de cumulonimbus.

METAR: LEAL 090600Z VRB01KT CAVOK 12/09 Q1021 NOSIG

Heure: 08:26 (06:26 UTC)

Prévision

Le bulletin a été fait il y a 1 heure et 26 minutes, à 05:00 UTC
Prévision valable du 09 à 06 UTC au 10 à 06 UTC
Vent 5 kt de nord
Visibilité 10 km ou plus
Quelques nuages à une hauteur de 2000 ft
Evoluant progressivement
du 09 à 07 UTC au 09 à 10 UTC
Vent 12 kt de est/nord-est
Evoluant progressivement
du 09 à 17 UTC au 09 à 20 UTC
Vent 5 kt de nord/nord-est

TAF: LEAL 090500Z 0906/1006 01005KT 9999 FEW020 TX20/0912Z TN10/0906Z BECMG 0907/0910 07012KT BECMG 0917/0920 02005KT

Observations et prévisions météorologiques de plus de 4000 aéroports (messages METAR et TAF).

Les stations disponibles sont représentées par des disques jaunes et rouges sur la carte.

Passer la souris dessus pour voir le nom de la station.

Cliquer dessus pour voir les observations et prévisions météorologiques.

Pour changer de carte: cliquez sur les boutons verts avec une croix noire pour zoomer, sur le bouton vert avec un tiret pour effectuer un zoom arrière, ou sur les flèches vertes pour les cartes adjacentes.


METAR-TAF: